sensor_id;sensor_type;location;lat;lon;timestamp;pressure;altitude;pressure_sealevel;temperature;humidity
72942;BME280;69665;55.822;37.330;2024-03-02T00:00:49;100837.94;;;6.39;53.28
72942;BME280;69665;55.822;37.330;2024-03-02T00:03:14;100830.09;;;6.34;53.61
72942;BME280;69665;55.822;37.330;2024-03-02T00:05:40;100830.97;;;6.41;53.64
72942;BME280;69665;55.822;37.330;2024-03-02T00:08:07;100799.59;;;6.26;53.47
72942;BME280;69665;55.822;37.330;2024-03-02T00:10:38;100820.50;;;6.38;53.69
72942;BME280;69665;55.822;37.330;2024-03-02T00:13:10;100817.88;;;6.49;53.42
72942;BME280;69665;55.822;37.330;2024-03-02T00:15:45;100827.47;;;6.48;53.66
72942;BME280;69665;55.822;37.330;2024-03-02T00:18:20;100822.22;;;6.46;53.20
72942;BME280;69665;55.822;37.330;2024-03-02T00:20:46;100825.72;;;6.42;53.60
72942;BME280;69665;55.822;37.330;2024-03-02T00:23:16;100815.28;;;6.27;53.62
72942;BME280;69665;55.822;37.330;2024-03-02T00:25:52;100826.66;;;6.23;54.13
72942;BME280;69665;55.822;37.330;2024-03-02T00:28:32;100794.38;;;6.00;53.75
72942;BME280;69665;55.822;37.330;2024-03-02T00:31:08;100826.63;;;6.11;53.88
72942;BME280;69665;55.822;37.330;2024-03-02T00:33:40;100801.38;;;5.92;53.73
72942;BME280;69665;55.822;37.330;2024-03-02T00:36:06;100831.88;;;6.05;54.10
72942;BME280;69665;55.822;37.330;2024-03-02T00:38:34;100838.84;;;6.07;54.69
72942;BME280;69665;55.822;37.330;2024-03-02T00:41:07;100832.75;;;6.10;54.69
72942;BME280;69665;55.822;37.330;2024-03-02T00:46:19;100813.56;;;6.11;54.36
72942;BME280;69665;55.822;37.330;2024-03-02T00:48:55;100818.78;;;6.19;54.71
72942;BME280;69665;55.822;37.330;2024-03-02T00:51:22;100814.41;;;6.25;53.79
72942;BME280;69665;55.822;37.330;2024-03-02T00:53:49;100828.34;;;6.38;53.52
72942;BME280;69665;55.822;37.330;2024-03-02T00:56:16;100823.13;;;6.36;53.74
72942;BME280;69665;55.822;37.330;2024-03-02T00:58:42;100834.44;;;6.44;53.42
72942;BME280;69665;55.822;37.330;2024-03-02T01:01:08;100829.22;;;6.44;53.30
72942;BME280;69665;55.822;37.330;2024-03-02T01:03:35;100838.78;;;6.53;53.87
72942;BME280;69665;55.822;37.330;2024-03-02T01:06:03;100813.53;;;6.32;53.65
72942;BME280;69665;55.822;37.330;2024-03-02T01:08:28;100841.44;;;6.42;53.50
72942;BME280;69665;55.822;37.330;2024-03-02T01:10:54;100844.91;;;6.47;53.63
72942;BME280;69665;55.822;37.330;2024-03-02T01:13:22;100849.22;;;6.52;53.38
72942;BME280;69665;55.822;37.330;2024-03-02T01:15:48;100842.25;;;6.57;53.47
72942;BME280;69665;55.822;37.330;2024-03-02T01:18:14;100856.19;;;6.66;53.68
72942;BME280;69665;55.822;37.330;2024-03-02T01:20:40;100850.97;;;6.62;53.47
72942;BME280;69665;55.822;37.330;2024-03-02T01:23:06;100840.56;;;6.48;53.20
72942;BME280;69665;55.822;37.330;2024-03-02T01:25:31;100835.31;;;6.42;53.32
72942;BME280;69665;55.822;37.330;2024-03-02T01:27:57;100852.75;;;6.49;53.27
72942;BME280;69665;55.822;37.330;2024-03-02T01:30:23;100828.34;;;6.32;53.42
72942;BME280;69665;55.822;37.330;2024-03-02T01:32:49;100841.44;;;6.42;53.22
72942;BME280;69665;55.822;37.330;2024-03-02T01:35:15;100839.69;;;6.41;53.51
72942;BME280;69665;55.822;37.330;2024-03-02T01:37:41;100810.91;;;6.34;53.50
72942;BME280;69665;55.822;37.330;2024-03-02T01:40:07;100827.47;;;6.40;53.90
72942;BME280;69665;55.822;37.330;2024-03-02T01:42:36;100828.34;;;6.49;53.81
72942;BME280;69665;55.822;37.330;2024-03-02T01:45:04;100850.09;;;6.64;53.20
72942;BME280;69665;55.822;37.330;2024-03-02T01:47:30;100845.72;;;6.68;53.09
72942;BME280;69665;55.822;37.330;2024-03-02T01:49:55;100833.53;;;6.64;53.03
72942;BME280;69665;55.822;37.330;2024-03-02T01:52:24;100847.47;;;6.73;53.14
72942;BME280;69665;55.822;37.330;2024-03-02T01:54:49;100842.19;;;6.78;52.93
72942;BME280;69665;55.822;37.330;2024-03-02T01:57:15;100831.78;;;6.66;53.06
72942;BME280;69665;55.822;37.330;2024-03-02T01:59:41;100837.00;;;6.67;52.91
72942;BME280;69665;55.822;37.330;2024-03-02T02:02:07;100842.22;;;6.75;53.36
72942;BME280;69665;55.822;37.330;2024-03-02T02:04:33;100839.56;;;6.78;53.36
72942;BME280;69665;55.822;37.330;2024-03-02T02:06:59;100823.03;;;6.73;53.20
72942;BME280;69665;55.822;37.330;2024-03-02T02:09:25;100846.53;;;6.84;53.36
72942;BME280;69665;55.822;37.330;2024-03-02T02:11:51;100818.66;;;6.73;52.78
72942;BME280;69665;55.822;37.330;2024-03-02T02:14:17;100823.00;;;6.76;52.80
72942;BME280;69665;55.822;37.330;2024-03-02T02:16:43;100831.69;;;6.82;53.18
72942;BME280;69665;55.822;37.330;2024-03-02T02:19:09;100845.66;;;6.92;53.08
72942;BME280;69665;55.822;37.330;2024-03-02T02:21:35;100843.91;;;6.91;53.09
72942;BME280;69665;55.822;37.330;2024-03-02T02:24:00;100847.38;;;6.92;53.13
72942;BME280;69665;55.822;37.330;2024-03-02T02:26:29;100849.13;;;6.94;53.15
72942;BME280;69665;55.822;37.330;2024-03-02T02:28:55;100854.34;;;6.97;52.69
72942;BME280;69665;55.822;37.330;2024-03-02T02:31:20;100851.75;;;6.94;53.00
72942;BME280;69665;55.822;37.330;2024-03-02T02:33:46;100846.53;;;6.87;52.71
72942;BME280;69665;55.822;37.330;2024-03-02T02:36:12;100854.38;;;6.91;53.03
72942;BME280;69665;55.822;37.330;2024-03-02T02:38:42;100853.47;;;6.97;53.00
72942;BME280;69665;55.822;37.330;2024-03-02T02:41:09;100836.91;;;6.90;52.81
72942;BME280;69665;55.822;37.330;2024-03-02T02:43:35;100859.53;;;7.02;52.90
72942;BME280;69665;55.822;37.330;2024-03-02T02:46:00;100856.09;;;7.01;52.34
72942;BME280;69665;55.822;37.330;2024-03-02T02:48:26;100856.97;;;6.96;52.64
72942;BME280;69665;55.822;37.330;2024-03-02T02:50:52;100860.47;;;6.90;52.93
72942;BME280;69665;55.822;37.330;2024-03-02T02:53:17;100855.25;;;6.84;52.99
72942;BME280;69665;55.822;37.330;2024-03-02T02:55:43;100837.81;;;6.78;52.67
72942;BME280;69665;55.822;37.330;2024-03-02T02:58:09;100828.28;;;6.71;52.49
72942;BME280;69665;55.822;37.330;2024-03-02T03:00:35;100857.88;;;6.82;52.77
72942;BME280;69665;55.822;37.330;2024-03-02T03:03:02;100856.19;;;6.74;53.04
72942;BME280;69665;55.822;37.330;2024-03-02T03:05:28;100855.25;;;6.86;52.76
72942;BME280;69665;55.822;37.330;2024-03-02T03:07:54;100854.38;;;6.84;53.06
72942;BME280;69665;55.822;37.330;2024-03-02T03:10:20;100861.34;;;6.94;52.62
72942;BME280;69665;55.822;37.330;2024-03-02T03:12:47;100856.09;;;6.95;52.69
72942;BME280;69665;55.822;37.330;2024-03-02T03:15:13;100810.81;;;6.72;52.96
72942;BME280;69665;55.822;37.330;2024-03-02T03:17:40;100842.16;;;6.86;52.61
72942;BME280;69665;55.822;37.330;2024-03-02T03:20:06;100841.28;;;6.87;52.69
72942;BME280;69665;55.822;37.330;2024-03-02T03:22:36;100863.94;;;7.00;52.72
72942;BME280;69665;55.822;37.330;2024-03-02T03:25:01;100864.84;;;6.90;52.27
72942;BME280;69665;55.822;37.330;2024-03-02T03:27:29;100847.47;;;6.72;52.79
72942;BME280;69665;55.822;37.330;2024-03-02T03:29:55;100869.28;;;6.71;53.04
72942;BME280;69665;55.822;37.330;2024-03-02T03:32:21;100864.06;;;6.60;53.04
72942;BME280;69665;55.822;37.330;2024-03-02T03:34:49;100852.75;;;6.46;53.07
72942;BME280;69665;55.822;37.330;2024-03-02T03:37:15;100859.75;;;6.36;53.19
72942;BME280;69665;55.822;37.330;2024-03-02T03:39:41;100855.41;;;6.17;53.47
72942;BME280;69665;55.822;37.330;2024-03-02T03:42:07;100837.97;;;6.08;53.68
72942;BME280;69665;55.822;37.330;2024-03-02T03:44:34;100837.09;;;6.02;53.71
72942;BME280;69665;55.822;37.330;2024-03-02T03:47:00;100853.66;;;6.11;53.80
72942;BME280;69665;55.822;37.330;2024-03-02T03:49:27;100851.03;;;6.07;53.87
72942;BME280;69665;55.822;37.330;2024-03-02T03:51:53;100843.19;;;6.04;54.14
72942;BME280;69665;55.822;37.330;2024-03-02T03:54:19;100841.47;;;6.09;53.87
72942;BME280;69665;55.822;37.330;2024-03-02T03:56:44;100856.28;;;6.10;54.16
72942;BME280;69665;55.822;37.330;2024-03-02T03:59:10;100826.66;;;5.91;54.03
72942;BME280;69665;55.822;37.330;2024-03-02T04:01:36;100846.69;;;6.03;54.34
72942;BME280;69665;55.822;37.330;2024-03-02T04:04:01;100850.16;;;6.00;53.90
72942;BME280;69665;55.822;37.330;2024-03-02T04:06:29;100845.81;;;5.99;53.95
72942;BME280;69665;55.822;37.330;2024-03-02T04:08:55;100829.28;;;5.93;54.42
72942;BME280;69665;55.822;37.330;2024-03-02T04:11:21;100848.44;;;6.04;53.97
72942;BME280;69665;55.822;37.330;2024-03-02T04:13:47;100851.03;;;6.08;53.94
72942;BME280;69665;55.822;37.330;2024-03-02T04:16:13;100829.25;;;6.03;53.96
72942;BME280;69665;55.822;37.330;2024-03-02T04:18:38;100851.88;;;6.24;53.78
72942;BME280;69665;55.822;37.330;2024-03-02T04:21:05;100852.81;;;6.23;53.68
72942;BME280;69665;55.822;37.330;2024-03-02T04:23:31;100847.56;;;6.19;53.69
72942;BME280;69665;55.822;37.330;2024-03-02T04:25:57;100857.13;;;6.27;53.64
72942;BME280;69665;55.822;37.330;2024-03-02T04:28:22;100858.03;;;6.23;53.71
72942;BME280;69665;55.822;37.330;2024-03-02T04:30:48;100861.50;;;6.15;53.61
72942;BME280;69665;55.822;37.330;2024-03-02T04:33:14;100854.53;;;6.04;53.48
72942;BME280;69665;55.822;37.330;2024-03-02T04:35:39;100840.59;;;5.95;53.93
72942;BME280;69665;55.822;37.330;2024-03-02T04:38:05;100847.56;;;5.94;54.33
72942;BME280;69665;55.822;37.330;2024-03-02T04:40:31;100844.97;;;5.93;53.75
72942;BME280;69665;55.822;37.330;2024-03-02T04:42:57;100835.31;;;5.81;53.60
72942;BME280;69665;55.822;37.330;2024-03-02T04:45:24;100837.06;;;5.80;54.33
72942;BME280;69665;55.822;37.330;2024-03-02T04:47:50;100857.13;;;5.86;53.57
72942;BME280;69665;55.822;37.330;2024-03-02T04:50:16;100860.59;;;5.84;54.01
72942;BME280;69665;55.822;37.330;2024-03-02T04:52:42;100851.88;;;5.80;54.57
72942;BME280;69665;55.822;37.330;2024-03-02T04:55:08;100830.09;;;5.58;54.23
72942;BME280;69665;55.822;37.330;2024-03-02T04:57:43;100847.53;;;5.70;54.02
72942;BME280;69665;55.822;37.330;2024-03-02T05:00:09;100840.53;;;5.61;53.98
72942;BME280;69665;55.822;37.330;2024-03-02T05:02:36;100862.34;;;5.69;53.84
72942;BME280;69665;55.822;37.330;2024-03-02T05:05:01;100863.19;;;5.67;53.59
72942;BME280;69665;55.822;37.330;2024-03-02T05:07:29;100857.09;;;5.65;54.09
72942;BME280;69665;55.822;37.330;2024-03-02T05:09:55;100844.00;;;5.57;54.10
72942;BME280;69665;55.822;37.330;2024-03-02T05:12:21;100851.88;;;5.63;53.85
72942;BME280;69665;55.822;37.330;2024-03-02T05:15:05;100851.00;;;5.63;53.55
72942;BME280;69665;55.822;37.330;2024-03-02T05:17:32;100866.66;;;5.61;54.24
72942;BME280;69665;55.822;37.330;2024-03-02T05:19:58;100841.38;;;5.48;53.97
72942;BME280;69665;55.822;37.330;2024-03-02T05:22:24;100857.97;;;5.61;53.96
72942;BME280;69665;55.822;37.330;2024-03-02T05:24:50;100846.63;;;5.54;53.77
72942;BME280;69665;55.822;37.330;2024-03-02T05:27:15;100825.69;;;5.48;54.50
72942;BME280;69665;55.822;37.330;2024-03-02T05:29:41;100855.34;;;5.64;53.88
72942;BME280;69665;55.822;37.330;2024-03-02T05:32:07;100857.09;;;5.66;53.88
72942;BME280;69665;55.822;37.330;2024-03-02T05:34:32;100851.88;;;5.69;54.04
72942;BME280;69665;55.822;37.330;2024-03-02T05:37:01;100844.88;;;5.73;53.85
72942;BME280;69665;55.822;37.330;2024-03-02T05:39:27;100851.94;;;5.91;53.69
72942;BME280;69665;55.822;37.330;2024-03-02T05:41:52;100850.19;;;5.93;53.33
72942;BME280;69665;55.822;37.330;2024-03-02T05:44:18;100859.75;;;6.00;53.48
72942;BME280;69665;55.822;37.330;2024-03-02T05:46:45;100855.41;;;5.91;53.49
72942;BME280;69665;55.822;37.330;2024-03-02T05:49:11;100841.41;;;5.78;53.80
72942;BME280;69665;55.822;37.330;2024-03-02T05:51:36;100862.34;;;5.85;53.82
72942;BME280;69665;55.822;37.330;2024-03-02T05:54:02;100851.00;;;5.64;53.29
72942;BME280;69665;55.822;37.330;2024-03-02T05:56:28;100873.63;;;5.62;54.23
72942;BME280;69665;55.822;37.330;2024-03-02T05:58:54;100872.72;;;5.43;53.79
72942;BME280;69665;55.822;37.330;2024-03-02T06:01:39;100866.63;;;5.43;54.50
72942;BME280;69665;55.822;37.330;2024-03-02T06:04:05;100871.00;;;5.55;53.98
72942;BME280;69665;55.822;37.330;2024-03-02T06:06:31;100863.16;;;5.52;53.54
72942;BME280;69665;55.822;37.330;2024-03-02T06:09:03;100868.38;;;5.55;54.27
72942;BME280;69665;55.822;37.330;2024-03-02T06:11:39;100880.63;;;5.69;53.95
72942;BME280;69665;55.822;37.330;2024-03-02T06:14:07;100878.03;;;5.71;53.94
72942;BME280;69665;55.822;37.330;2024-03-02T06:16:34;100882.34;;;5.75;53.35
72942;BME280;69665;55.822;37.330;2024-03-02T06:19:00;100878.03;;;5.83;54.02
72942;BME280;69665;55.822;37.330;2024-03-02T06:21:27;100875.47;;;5.95;53.83
72942;BME280;69665;55.822;37.330;2024-03-02T06:23:53;100860.66;;;5.94;53.44
72942;BME280;69665;55.822;37.330;2024-03-02T06:26:19;100871.09;;;6.05;52.99
72942;BME280;69665;55.822;37.330;2024-03-02T06:28:45;100869.34;;;5.99;52.84
72942;BME280;69665;55.822;37.330;2024-03-02T06:31:11;100879.81;;;6.05;53.22
72942;BME280;69665;55.822;37.330;2024-03-02T06:33:37;100885.03;;;6.13;53.24
72942;BME280;69665;55.822;37.330;2024-03-02T06:36:03;100882.44;;;6.19;52.89
72942;BME280;69665;55.822;37.330;2024-03-02T06:38:29;100885.91;;;6.20;53.01
72942;BME280;69665;55.822;37.330;2024-03-02T06:40:57;100878.06;;;6.18;52.97
72942;BME280;69665;55.822;37.330;2024-03-02T06:43:23;100869.34;;;6.13;52.97
72942;BME280;69665;55.822;37.330;2024-03-02T06:45:52;100879.78;;;6.25;52.61
72942;BME280;69665;55.822;37.330;2024-03-02T06:48:18;100878.91;;;6.25;53.05
72942;BME280;69665;55.822;37.330;2024-03-02T06:50:49;100889.38;;;6.28;52.74
72942;BME280;69665;55.822;37.330;2024-03-02T06:53:15;100876.34;;;6.20;52.61
72942;BME280;69665;55.822;37.330;2024-03-02T06:55:46;100892.00;;;6.26;52.34
72942;BME280;69665;55.822;37.330;2024-03-02T06:58:13;100885.91;;;6.29;52.17
72942;BME280;69665;55.822;37.330;2024-03-02T07:00:42;100885.03;;;6.24;52.87
72942;BME280;69665;55.822;37.330;2024-03-02T07:03:08;100881.56;;;6.22;52.41
72942;BME280;69665;55.822;37.330;2024-03-02T07:05:34;100866.75;;;6.19;53.00
72942;BME280;69665;55.822;37.330;2024-03-02T07:07:59;100860.66;;;6.23;52.81
72942;BME280;69665;55.822;37.330;2024-03-02T07:10:27;100854.50;;;6.24;52.58
72942;BME280;69665;55.822;37.330;2024-03-02T07:12:53;100881.53;;;6.41;52.41
72942;BME280;69665;55.822;37.330;2024-03-02T07:15:19;100888.53;;;6.42;52.35
72942;BME280;69665;55.822;37.330;2024-03-02T07:17:55;100885.03;;;6.36;52.37
72942;BME280;69665;55.822;37.330;2024-03-02T07:20:20;100881.53;;;6.38;52.42
72942;BME280;69665;55.822;37.330;2024-03-02T07:22:46;100835.31;;;6.24;52.47
72942;BME280;69665;55.822;37.330;2024-03-02T07:25:12;100886.75;;;6.57;52.46
72942;BME280;69665;55.822;37.330;2024-03-02T07:27:39;100862.34;;;6.49;52.26
72942;BME280;69665;55.822;37.330;2024-03-02T07:30:05;100857.97;;;6.51;52.27
72942;BME280;69665;55.822;37.330;2024-03-02T07:32:31;100878.00;;;6.61;52.10
72942;BME280;69665;55.822;37.330;2024-03-02T07:34:57;100875.41;;;6.58;52.40
72942;BME280;69665;55.822;37.330;2024-03-02T07:37:23;100877.13;;;6.60;51.99
72942;BME280;69665;55.822;37.330;2024-03-02T07:39:50;100869.28;;;6.56;51.66
72942;BME280;69665;55.822;37.330;2024-03-02T07:42:16;100878.88;;;6.61;51.77
72942;BME280;69665;55.822;37.330;2024-03-02T07:44:44;100847.50;;;6.54;51.87
72942;BME280;69665;55.822;37.330;2024-03-02T07:47:09;100868.41;;;6.72;52.05
72942;BME280;69665;55.822;37.330;2024-03-02T07:49:35;100865.78;;;6.72;51.92
72942;BME280;69665;55.822;37.330;2024-03-02T07:52:01;100861.41;;;6.75;51.91
72942;BME280;69665;55.822;37.330;2024-03-02T07:54:27;100864.00;;;6.81;51.81
72942;BME280;69665;55.822;37.330;2024-03-02T07:56:52;100857.88;;;6.84;51.86
72942;BME280;69665;55.822;37.330;2024-03-02T07:59:18;100863.09;;;6.90;51.37
72942;BME280;69665;55.822;37.330;2024-03-02T08:01:44;100844.78;;;6.89;51.83
72942;BME280;69665;55.822;37.330;2024-03-02T08:04:10;100851.75;;;6.93;51.64
72942;BME280;69665;55.822;37.330;2024-03-02T08:06:36;100855.22;;;6.99;51.26
72942;BME280;69665;55.822;37.330;2024-03-02T08:09:02;100864.84;;;6.97;51.15
72942;BME280;69665;55.822;37.330;2024-03-02T08:11:33;100841.31;;;6.77;51.29
72942;BME280;69665;55.822;37.330;2024-03-02T08:13:59;100848.25;;;6.92;51.38
72942;BME280;69665;55.822;37.330;2024-03-02T08:16:25;100847.38;;;6.99;51.43
72942;BME280;69665;55.822;37.330;2024-03-02T08:18:51;100847.31;;;7.02;50.68
72942;BME280;69665;55.822;37.330;2024-03-02T08:21:17;100846.50;;;6.93;51.01
72942;BME280;69665;55.822;37.330;2024-03-02T08:23:43;100868.28;;;7.04;50.89
72942;BME280;69665;55.822;37.330;2024-03-02T08:26:10;100860.47;;;7.01;51.18
72942;BME280;69665;55.822;37.330;2024-03-02T08:28:36;100863.88;;;7.17;51.01
72942;BME280;69665;55.822;37.330;2024-03-02T08:31:06;100841.16;;;7.19;50.66
72942;BME280;69665;55.822;37.330;2024-03-02T08:33:32;100842.88;;;7.24;50.94
72942;BME280;69665;55.822;37.330;2024-03-02T08:35:59;100866.34;;;7.47;50.33
72942;BME280;69665;55.822;37.330;2024-03-02T08:38:25;100861.03;;;7.55;50.14
72942;BME280;69665;55.822;37.330;2024-03-02T08:40:51;100865.31;;;7.69;50.26
72942;BME280;69665;55.822;37.330;2024-03-02T08:43:17;100861.78;;;7.76;50.07
72942;BME280;69665;55.822;37.330;2024-03-02T08:45:43;100867.00;;;7.79;50.38
72942;BME280;69665;55.822;37.330;2024-03-02T08:48:08;100840.88;;;7.67;50.08
72942;BME280;69665;55.822;37.330;2024-03-02T08:50:35;100859.00;;;7.96;49.62
72942;BME280;69665;55.822;37.330;2024-03-02T08:53:03;100847.44;;;8.20;49.03
72942;BME280;69665;55.822;37.330;2024-03-02T08:55:28;100835.16;;;8.22;49.25
72942;BME280;69665;55.822;37.330;2024-03-02T08:57:55;100862.94;;;8.50;48.48
72942;BME280;69665;55.822;37.330;2024-03-02T09:00:22;100859.19;;;8.73;48.40
72942;BME280;69665;55.822;37.330;2024-03-02T09:02:48;100849.50;;;8.78;47.77
72942;BME280;69665;55.822;37.330;2024-03-02T09:05:14;100862.59;;;8.81;48.20
72942;BME280;69665;55.822;37.330;2024-03-02T09:07:40;100854.63;;;8.89;48.31
72942;BME280;69665;55.822;37.330;2024-03-02T09:10:07;100850.13;;;9.00;47.52
72942;BME280;69665;55.822;37.330;2024-03-02T09:12:33;100842.25;;;8.98;47.37
72942;BME280;69665;55.822;37.330;2024-03-02T09:15:02;100843.03;;;9.06;47.66
72942;BME280;69665;55.822;37.330;2024-03-02T09:17:34;100850.78;;;9.15;47.61
72942;BME280;69665;55.822;37.330;2024-03-02T09:20:00;100851.59;;;9.21;47.77
72942;BME280;69665;55.822;37.330;2024-03-02T09:22:25;100834.34;;;9.00;46.88
72942;BME280;69665;55.822;37.330;2024-03-02T09:24:51;100828.94;;;9.10;47.14
72942;BME280;69665;55.822;37.330;2024-03-02T09:27:17;100845.25;;;9.37;47.49
72942;BME280;69665;55.822;37.330;2024-03-02T09:29:42;100849.06;;;9.76;46.39
72942;BME280;69665;55.822;37.330;2024-03-02T09:32:12;100839.78;;;10.09;46.50
72942;BME280;69665;55.822;37.330;2024-03-02T09:34:38;100836.81;;;10.29;46.03
72942;BME280;69665;55.822;37.330;2024-03-02T09:37:04;100815.66;;;10.35;45.01
72942;BME280;69665;55.822;37.330;2024-03-02T09:39:30;100812.22;;;10.30;45.35
72942;BME280;69665;55.822;37.330;2024-03-02T09:41:57;100836.22;;;10.11;45.57
72942;BME280;69665;55.822;37.330;2024-03-02T09:44:26;100835.69;;;9.90;45.93
72942;BME280;69665;55.822;37.330;2024-03-02T09:46:52;100834.91;;;9.84;46.37
72942;BME280;69665;55.822;37.330;2024-03-02T09:49:18;100835.97;;;9.71;46.85
72942;BME280;69665;55.822;37.330;2024-03-02T09:51:47;100836.19;;;9.58;45.77
72942;BME280;69665;55.822;37.330;2024-03-02T09:54:18;100802.63;;;9.15;45.55
72942;BME280;69665;55.822;37.330;2024-03-02T09:56:44;100826.44;;;9.03;47.12
72942;BME280;69665;55.822;37.330;2024-03-02T09:59:10;100825.88;;;8.78;46.82
72942;BME280;69665;55.822;37.330;2024-03-02T10:01:36;100825.06;;;8.73;47.58
72942;BME280;69665;55.822;37.330;2024-03-02T10:04:02;100836.25;;;8.87;47.33
72942;BME280;69665;55.822;37.330;2024-03-02T10:06:29;100843.28;;;8.83;46.91
72942;BME280;69665;55.822;37.330;2024-03-02T10:08:55;100838.97;;;8.81;47.29
72942;BME280;69665;55.822;37.330;2024-03-02T10:11:31;100830.31;;;8.73;47.53
72942;BME280;69665;55.822;37.330;2024-03-02T10:14:08;100831.84;;;8.91;46.79
72942;BME280;69665;55.822;37.330;2024-03-02T10:16:35;100828.25;;;8.98;46.82
72942;BME280;69665;55.822;37.330;2024-03-02T10:21:55;100834.06;;;9.23;47.22
72942;BME280;69665;55.822;37.330;2024-03-02T10:24:26;100826.22;;;9.18;47.26
72942;BME280;69665;55.822;37.330;2024-03-02T10:26:52;100848.81;;;9.34;47.16
72942;BME280;69665;55.822;37.330;2024-03-02T10:29:19;100832.97;;;9.37;46.64
72942;BME280;69665;55.822;37.330;2024-03-02T10:31:46;100846.84;;;9.47;46.32
72942;BME280;69665;55.822;37.330;2024-03-02T10:34:12;100828.59;;;9.36;46.96
72942;BME280;69665;55.822;37.330;2024-03-02T10:36:42;100846.91;;;9.42;46.72
72942;BME280;69665;55.822;37.330;2024-03-02T10:39:09;100858.25;;;9.47;46.91
72942;BME280;69665;55.822;37.330;2024-03-02T10:41:37;100859.06;;;9.52;46.61
72942;BME280;69665;55.822;37.330;2024-03-02T10:44:07;100849.44;;;9.50;46.49
72942;BME280;69665;55.822;37.330;2024-03-02T10:46:35;100831.38;;;9.27;47.34
72942;BME280;69665;55.822;37.330;2024-03-02T10:49:02;100860.84;;;9.50;46.71
72942;BME280;69665;55.822;37.330;2024-03-02T10:51:33;100858.13;;;9.57;46.84
72942;BME280;69665;55.822;37.330;2024-03-02T10:53:59;100853.00;;;9.46;46.47
72942;BME280;69665;55.822;37.330;2024-03-02T10:56:33;100829.94;;;9.03;46.92
72942;BME280;69665;55.822;37.330;2024-03-02T10:59:50;100852.78;;;8.97;46.75
72942;BME280;69665;55.822;37.330;2024-03-02T11:01:47;100854.56;;;8.93;46.06
72942;BME280;69665;55.822;37.330;2024-03-02T11:04:16;100865.09;;;8.90;47.06
72942;BME280;69665;55.822;37.330;2024-03-02T11:06:50;100852.00;;;8.87;46.74
72942;BME280;69665;55.822;37.330;2024-03-02T11:09:21;100849.41;;;8.84;47.20
72942;BME280;69665;55.822;37.330;2024-03-02T11:12:03;100854.78;;;8.76;46.92
72942;BME280;69665;55.822;37.330;2024-03-02T11:14:31;100844.41;;;8.61;47.57
72942;BME280;69665;55.822;37.330;2024-03-02T11:17:00;100857.53;;;8.63;47.84
72942;BME280;69665;55.822;37.330;2024-03-02T11:19:27;100840.94;;;8.58;47.25
72942;BME280;69665;55.822;37.330;2024-03-02T11:21:53;100819.19;;;8.49;47.60
72942;BME280;69665;55.822;37.330;2024-03-02T11:26:59;100837.53;;;8.54;47.47
72942;BME280;69665;55.822;37.330;2024-03-02T11:32:01;100842.78;;;8.51;47.09
72942;BME280;69665;55.822;37.330;2024-03-02T11:34:32;100835.84;;;8.45;47.19
72942;BME280;69665;55.822;37.330;2024-03-02T11:36:59;100825.34;;;8.45;47.90
72942;BME280;69665;55.822;37.330;2024-03-02T11:39:27;100825.34;;;8.45;47.44
72942;BME280;69665;55.822;37.330;2024-03-02T11:41:53;100838.41;;;8.52;47.02
72942;BME280;69665;55.822;37.330;2024-03-02T11:44:19;100820.91;;;8.52;47.00
72942;BME280;69665;55.822;37.330;2024-03-02T11:46:45;100834.75;;;8.65;46.61
72942;BME280;69665;55.822;37.330;2024-03-02T11:49:15;100820.03;;;8.52;46.65
72942;BME280;69665;55.822;37.330;2024-03-02T11:51:54;100822.81;;;8.36;47.14
72942;BME280;69665;55.822;37.330;2024-03-02T11:54:27;100825.50;;;8.27;47.04
72942;BME280;69665;55.822;37.330;2024-03-02T11:56:55;100825.53;;;8.24;47.25
72942;BME280;69665;55.822;37.330;2024-03-02T11:59:22;100833.31;;;8.35;46.91
72942;BME280;69665;55.822;37.330;2024-03-02T12:01:49;100807.97;;;8.34;47.26
72942;BME280;69665;55.822;37.330;2024-03-02T12:04:16;100825.38;;;8.41;47.25
72942;BME280;69665;55.822;37.330;2024-03-02T12:06:42;100836.75;;;8.43;46.84
72942;BME280;69665;55.822;37.330;2024-03-02T12:09:09;100821.91;;;8.40;47.13
72942;BME280;69665;55.822;37.330;2024-03-02T12:11:37;100804.50;;;8.27;47.24
72942;BME280;69665;55.822;37.330;2024-03-02T12:14:03;100821.84;;;8.46;47.09
72942;BME280;69665;55.822;37.330;2024-03-02T12:16:30;100828.94;;;8.34;47.44
72942;BME280;69665;55.822;37.330;2024-03-02T12:18:55;100815.97;;;8.17;47.46
72942;BME280;69665;55.822;37.330;2024-03-02T12:21:21;100822.94;;;8.20;47.55
72942;BME280;69665;55.822;37.330;2024-03-02T12:23:47;100813.44;;;8.06;47.41
72942;BME280;69665;55.822;37.330;2024-03-02T12:26:13;100803.97;;;7.90;47.17
72942;BME280;69665;55.822;37.330;2024-03-02T12:28:38;100811.00;;;7.85;47.26
72942;BME280;69665;55.822;37.330;2024-03-02T12:31:04;100823.25;;;7.81;47.92
72942;BME280;69665;55.822;37.330;2024-03-02T12:33:30;100804.22;;;7.58;48.03
72942;BME280;69665;55.822;37.330;2024-03-02T12:35:57;100818.19;;;7.57;47.81
72942;BME280;69665;55.822;37.330;2024-03-02T12:38:23;100821.75;;;7.52;47.84
72942;BME280;69665;55.822;37.330;2024-03-02T12:40:51;100833.13;;;7.51;48.02
72942;BME280;69665;55.822;37.330;2024-03-02T12:43:18;100820.94;;;7.43;48.18
72942;BME280;69665;55.822;37.330;2024-03-02T12:45:43;100842.78;;;7.41;48.09
72942;BME280;69665;55.822;37.330;2024-03-02T12:48:09;100824.50;;;7.29;48.35
72942;BME280;69665;55.822;37.330;2024-03-02T12:50:35;100835.84;;;7.29;48.38
72942;BME280;69665;55.822;37.330;2024-03-02T12:53:01;100797.59;;;7.01;48.52
72942;BME280;69665;55.822;37.330;2024-03-02T12:55:27;100811.59;;;6.92;48.60
72942;BME280;69665;55.822;37.330;2024-03-02T12:57:54;100829.94;;;6.88;48.82
72942;BME280;69665;55.822;37.330;2024-03-02T13:00:20;100808.19;;;6.72;49.21